Latest Weather Observations for Lake Grace

IDW60801

Issued at 8:53 pm WST Tuesday 28 January 2020 (issued every 10 minutes, with the page automatically refreshed every 10 minutes)

About weather observations | Map of weather stations | Latest weather observations for WA | Other Formats
Station Details ID: 010911 Name: LAKE GRACE Lat: -33.10 Lon: 118.46 Height: 286.0 m
Data from the previous 72 hours. | See also: Recent months at Lake Grace
Date/Time
WST
Temp
°C
App
Temp
°C
Dew
Point
°C
Rel
Hum
%
Delta-T
°C
Wind Press
QNH
hPa
Press
MSL
hPa
Rain since
9am
mm
Dir  Spd
km/h
Gust
km/h
Spd
kts
Gust
kts
28/08:30pm 25.8 22.1 12.6 44 7.7 SSE 24 37 13 20 1008.4 1007.0 0.0
28/08:00pm 27.3 23.5 11.3 37 9.3 SSE 22 35 12 19 1008.1 1006.7 0.0
28/07:30pm 28.8 24.8 13.1 38 9.4 SSE 26 39 14 21 1007.4 1006.0 0.0
28/07:24pm 29.1 24.7 12.9 37 9.7 SSE 28 46 15 25 1007.3 1005.9 0.0
28/07:00pm 31.3 27.3 15.3 38 10.0 SSE 30 44 16 24 1006.8 1005.4 0.0
28/06:44pm 34.6 31.5 14.5 30 12.5 S 24 46 13 25 1006.1 1004.7 0.0
28/06:43pm 35.4 32.5 14.1 28 13.3 SSW 22 37 12 20 1006.1 1004.7 0.0
28/06:30pm 40.8 35.5 3.2 10 20.4 SW 20 35 11 19 1005.5 1004.1 0.0
28/06:00pm 42.3 36.6 -0.6 7 22.3 WNW 19 26 10 14 1005.1 1003.7 0.0
28/05:30pm 42.8 36.2 -0.3 7 22.5 WNW 24 35 13 19 1005.0 1003.6 0.0
28/05:00pm 43.2 37.4 0.0 7 22.7 NW 20 33 11 18 1005.1 1003.7 0.0
28/04:30pm 44.0 37.5 0.6 7 23.1 WNW 24 39 13 21 1005.3 1003.9 0.0
28/04:00pm 43.5 37.0 0.2 7 22.9 NW 24 43 13 23 1005.5 1004.1 0.0
28/03:30pm 43.9 37.4 0.5 7 23.0 WNW 24 41 13 22 1005.9 1004.5 0.0
28/03:00pm 43.9 37.8 0.5 7 23.1 NW 22 39 12 21 1006.4 1005.0 0.0
28/02:30pm 43.5 37.3 2.1 8 22.4 NW 24 37 13 20 1006.6 1005.2 0.0
28/02:00pm 43.3 38.0 1.9 8 22.4 NW 19 33 10 18 1007.0 1005.6 0.0
28/01:30pm 42.2 36.2 1.1 8 21.8 NW 22 41 12 22 1007.6 1006.2 0.0
28/01:00pm 42.6 36.3 1.4 8 22.0 NW 24 37 13 20 1008.0 1006.6 0.0
28/12:30pm 41.1 35.6 2.0 9 20.9 NW 20 35 11 19 1008.4 1007.0 0.0
28/12:00pm 40.3 34.8 4.2 11 19.9 NNW 22 33 12 18 1008.7 1007.4 0.0
28/11:30am 38.7 35.7 9.3 17 17.3 NNW 15 22 8 12 1009.2 1007.9 0.0
28/11:00am 35.6 33.2 12.5 24 14.1 NNW 17 24 9 13 1009.7 1008.3 0.0
28/10:30am 33.1 31.3 13.2 30 12.1 NNW 15 22 8 12 1010.1 1008.7 0.0
28/10:00am 31.0 30.4 14.6 37 10.1 NNW 11 17 6 9 1010.4 1009.0 0.0
28/09:30am 28.4 28.6 15.7 46 7.9 N 9 15 5 8 1010.8 1009.4 0.0
28/09:00am 26.8 27.1 16.1 52 6.7 NE 9 15 5 8 1011.1 1009.7 0.0
28/08:30am 24.5 24.9 16.2 60 5.1 NE 9 13 5 7 1011.3 1009.9 0.0
28/08:00am 22.9 23.3 16.2 66 4.1 ESE 9 13 5 7 1011.6 1010.2 0.0
28/07:30am 20.9 21.4 16.5 76 2.7 SE 9 13 5 7 1011.6 1010.2 0.0
28/07:00am 18.9 18.8 16.1 84 1.7 SSE 11 17 6 9 1011.9 1010.6 0.0
28/06:30am 17.2 17.1 15.9 92 0.8 SSE 11 15 6 8 1011.8 1010.5 0.0
28/06:00am 16.7 16.8 15.6 93 0.7 ESE 9 13 5 7 1011.4 1010.0 0.0
28/05:30am 16.8 16.5 15.5 92 0.8 SE 11 15 6 8 1011.3 1009.9 0.0
28/05:00am 16.9 16.5 15.1 89 1.1 SE 11 15 6 8 1011.4 1010.0 0.0
28/04:30am 16.8 17.0 14.6 87 1.3 SSE 7 11 4 6 1011.3 1009.9 0.0
28/04:00am 17.0 17.2 14.6 86 1.4 S 7 9 4 5 1011.2 1009.8 0.0
28/03:30am 17.4 16.9 15.0 86 1.4 SSE 11 15 6 8 1011.4 1010.0 0.0
28/03:00am 17.7 17.3 15.1 85 1.5 SSE 11 17 6 9 1011.5 1010.1 0.0
28/02:30am 18.1 17.3 15.2 83 1.7 SSE 13 20 7 11 1011.8 1010.5 0.0
28/02:00am 18.7 18.1 14.6 77 2.4 SSE 11 15 6 8 1012.5 1011.2 0.0
28/01:30am 19.2 18.3 13.6 70 3.2 S 11 15 6 8 1013.0 1011.7 0.0
28/01:00am 20.0 19.5 13.9 68 3.6 S 9 15 5 8 1013.2 1011.8 0.0
28/12:30am 20.5 19.9 13.5 64 4.1 SSE 9 15 5 8 1013.2 1011.8 0.0
28/12:00am 21.2 20.1 13.1 60 4.7 SE 11 15 6 8 1013.2 1011.8 0.0
 
Date/Time
WST
Temp
°C
App
Temp
°C
Dew
Point
°C
Rel
Hum
%
Delta-T
°C
Wind Press
QNH
hPa
Press
MSL
hPa
Rain since
9am
mm
Dir  Spd
km/h
Gust
km/h
Spd
kts
Gust
kts
27/11:30pm 21.9 20.4 13.0 57 5.2 SE 13 19 7 10 1013.4 1012.0 0.0
27/11:00pm 22.6 20.7 13.1 55 5.5 SE 15 24 8 13 1013.8 1012.4 0.0
27/10:30pm 23.5 21.0 13.4 53 5.9 SE 19 30 10 16 1013.9 1012.5 0.0
27/10:00pm 24.9 22.4 13.5 49 6.8 SE 19 33 10 18 1013.7 1012.3 0.0
27/09:30pm 26.2 22.3 13.3 45 7.7 SE 26 35 14 19 1013.5 1012.1 0.0
27/09:00pm 28.1 24.5 12.0 36 9.4 ESE 22 35 12 19 1012.9 1011.6 0.0
27/08:30pm 30.1 26.7 12.5 34 10.5 ESE 22 32 12 17 1012.4 1011.1 0.0
27/08:00pm 31.7 27.5 9.8 26 12.6 SE 22 33 12 18 1011.9 1010.6 0.0
27/07:49pm 32.5 28.8 9.3 24 13.3 SE 19 32 10 17 1011.8 1010.5 0.0
27/07:30pm 34.5 32.0 5.0 16 15.9 SSE 7 9 4 5 1011.3 1009.9 0.0
27/07:00pm 36.4 34.1 5.6 15 17.0 S 7 11 4 6 1011.0 1009.6 0.0
27/06:30pm 37.9 35.0 4.7 13 18.2 S 9 15 5 8 1010.9 1009.5 0.0
27/06:00pm 38.3 35.3 3.9 12 18.7 WSW 9 13 5 7 1010.8 1009.4 0.0
27/05:30pm 38.8 36.2 4.3 12 18.8 W 7 13 4 7 1010.7 1009.3 0.0
27/05:00pm 38.9 36.3 4.4 12 18.9 WNW 7 17 4 9 1010.8 1009.4 0.0
27/04:30pm 39.0 36.1 4.4 12 18.9 W 9 20 5 11 1010.8 1009.4 0.0
27/04:00pm 38.8 36.1 5.4 13 18.6 W 9 17 5 9 1011.0 1009.6 0.0
27/03:30pm 37.9 35.6 4.7 13 18.2 S 6 11 3 6 1011.2 1009.8 0.0
27/03:00pm 38.1 35.1 6.0 14 17.9 WNW 11 20 6 11 1011.6 1010.2 0.0
27/02:30pm 37.9 34.5 5.8 14 17.9 WNW 13 20 7 11 1011.9 1010.6 0.0
27/02:00pm 38.6 36.0 6.3 14 18.2 NNW 9 17 5 9 1012.2 1010.9 0.0
27/01:30pm 37.4 35.4 7.3 16 17.1 S 7 15 4 8 1012.7 1011.4 0.0
27/01:00pm 36.8 35.0 7.8 17 16.5 NW 7 15 4 8 1012.8 1011.5 0.0
27/12:30pm 37.0 35.0 8.8 18 16.3 E 9 17 5 9 1013.3 1011.9 0.0
27/12:00pm 35.1 32.7 8.8 20 15.1 SSE 11 17 6 9 1013.6 1012.2 0.0
27/11:30am 34.4 32.6 9.6 22 14.4 NNE 9 17 5 9 1014.1 1012.7 0.0
27/11:00am 33.7 31.0 10.3 24 13.7 ESE 15 22 8 12 1014.5 1013.1 0.0
27/10:30am 32.7 30.0 11.8 28 12.4 E 17 22 9 12 1014.9 1013.6 0.0
27/10:00am 31.5 29.5 12.8 32 11.2 E 15 22 8 12 1015.1 1013.8 0.0
27/09:30am 29.5 27.1 13.7 38 9.6 ENE 19 26 10 14 1015.3 1014.0 0.0
27/09:00am 28.0 25.8 14.3 43 8.3 ENE 19 28 10 15 1015.6 1014.3 0.0
27/08:30am 27.0 25.1 14.1 45 7.8 ENE 17 26 9 14 1015.7 1014.4 0.0
27/08:00am 25.1 24.3 13.9 49 6.7 E 11 22 6 12 1015.8 1014.5 0.0
27/07:30am 22.1 21.7 14.2 61 4.7 E 9 17 5 9 1015.9 1014.6 0.0
27/07:00am 20.1 20.3 14.7 71 3.2 ESE 7 13 4 7 1016.1 1014.8 0.0
27/06:30am 17.3 16.9 14.2 82 1.8 SSE 9 11 5 6 1016.0 1014.7 0.0
27/06:00am 16.2 16.2 13.7 85 1.4 SSE 6 9 3 5 1016.1 1014.8 0.0
27/05:30am 15.4 15.1 13.4 88 1.1 SSE 7 11 4 6 1016.1 1014.8 0.0
27/05:00am 15.7 15.7 13.5 87 1.2 SSE 6 9 3 5 1015.8 1014.5 0.0
27/04:30am 16.1 16.2 13.8 86 1.3 SSE 6 9 3 5 1015.7 1014.4 0.0
27/04:00am 16.5 16.6 14.0 85 1.4 SSE 6 9 3 5 1015.8 1014.5 0.0
27/03:30am 16.8 16.8 14.3 85 1.4 SE 7 13 4 7 1015.7 1014.4 0.0
27/03:00am 16.9 16.5 14.2 84 1.6 ESE 9 13 5 7 1015.9 1014.6 0.0
27/02:30am 17.0 17.0 14.3 84 1.6 E 7 13 4 7 1016.1 1014.8 0.0
27/02:00am 17.1 16.7 14.2 83 1.7 ESE 9 13 5 7 1016.3 1015.0 0.0
27/01:30am 17.3 16.6 14.4 83 1.7 ESE 11 17 6 9 1016.3 1015.0 0.0
27/01:00am 17.4 16.7 14.3 82 1.8 ESE 11 17 6 9 1016.5 1015.2 0.0
27/12:30am 17.9 16.8 14.4 80 2.0 E 13 22 7 12 1016.6 1015.3 0.0
27/12:00am 18.2 16.3 14.3 78 2.3 ESE 17 26 9 14 1016.6 1015.3 0.0
 
Date/Time
WST
Temp
°C
App
Temp
°C
Dew
Point
°C
Rel
Hum
%
Delta-T
°C
Wind Press
QNH
hPa
Press
MSL
hPa
Rain since
9am
mm
Dir  Spd
km/h
Gust
km/h
Spd
kts
Gust
kts
26/11:30pm 18.9 16.9 14.0 73 2.8 ESE 17 28 9 15 1017.0 1015.6 0.0
26/11:00pm 19.9 18.2 13.6 67 3.7 SE 15 26 8 14 1016.9 1015.5 0.0
26/10:30pm 20.4 17.9 13.6 65 4.0 SE 19 28 10 15 1016.9 1015.5 0.0
26/10:00pm 21.1 18.3 14.3 65 4.0 SE 22 33 12 18 1016.6 1015.3 0.0
26/09:30pm 22.5 19.9 13.8 58 5.1 SE 20 30 11 16 1016.4 1015.1 0.0
26/09:00pm 24.0 21.6 14.4 55 5.7 SE 20 32 11 17 1016.1 1014.8 0.0
26/08:30pm 25.2 23.1 14.6 51 6.4 SE 19 28 10 15 1015.7 1014.4 0.0
26/08:00pm 26.9 24.7 15.0 48 7.3 SE 20 28 11 15 1015.2 1013.9 0.0
26/07:30pm 28.3 26.2 15.2 44 8.1 SE 20 32 11 17 1014.6 1013.2 0.0
26/07:00pm 29.5 26.9 14.9 41 9.0 SE 22 32 12 17 1014.3 1012.9 0.0
26/06:30pm 30.4 27.1 14.9 39 9.6 SE 26 37 14 20 1014.0 1012.6 0.0
26/06:00pm 32.0 28.5 14.6 34 10.8 SE 26 37 14 20 1013.4 1012.0 0.0
26/05:30pm 35.0 31.5 5.4 16 16.1 SSW 13 19 7 10 1012.9 1011.6 0.0
26/05:00pm 35.4 32.7 5.8 16 16.3 S 9 15 5 8 1012.9 1011.6 0.0
26/04:30pm 34.9 31.9 6.2 17 15.8 SW 11 20 6 11 1013.0 1011.7 0.0
26/04:00pm 34.8 31.3 7.0 18 15.5 S 15 22 8 12 1013.3 1011.9 0.0
26/03:30pm 35.1 32.6 8.0 19 15.4 SSW 11 20 6 11 1013.4 1012.0 0.0
26/03:00pm 34.8 32.4 8.5 20 15.0 W 11 22 6 12 1013.6 1012.2 0.0
26/02:30pm 34.8 33.0 9.3 21 14.7 SSE 9 17 5 9 1013.8 1012.4 0.0
26/02:00pm 34.2 32.0 9.4 22 14.3 SSE 11 19 6 10 1014.0 1012.6 0.0
26/01:30pm 33.6 31.5 9.6 23 13.9 SW 11 19 6 10 1014.3 1012.9 0.0
26/01:00pm 32.9 31.3 11.4 27 12.7 E 11 19 6 10 1014.7 1013.3 0.0
26/12:30pm 31.8 30.0 11.0 28 12.2 SSW 11 15 6 8 1015.0 1013.7 0.0
26/12:00pm 31.1 30.2 12.5 32 11.1 SE 9 19 5 10 1015.4 1014.1 0.0
26/11:30am 29.5 28.2 12.4 35 10.1 ESE 11 22 6 12 1015.7 1014.4 0.0
26/11:00am 28.9 27.3 12.8 37 9.6 ESE 13 19 7 10 1016.0 1014.7 0.0
26/10:30am 27.8 26.1 12.6 39 9.0 E 13 22 7 12 1016.5 1015.2 0.0
26/10:00am 26.9 25.1 13.3 43 8.1 ESE 15 24 8 13 1017.0 1015.6 0.0
26/09:30am 25.4 24.4 13.3 47 7.2 SE 11 17 6 9 1017.2 1015.8 0.0
26/09:00am 24.4 23.0 13.3 50 6.5 ESE 13 20 7 11 1017.3 1015.9 0.0
26/08:30am 22.5 21.3 14.1 59 5.0 SE 13 20 7 11 1017.7 1016.3 0.0
26/08:00am 21.4 19.8 13.8 62 4.4 E 15 24 8 13 1017.4 1016.0 0.0
26/07:30am 20.3 19.3 14.7 70 3.3 ESE 13 19 7 10 1017.7 1016.3 0.0
26/07:00am 19.2 17.9 14.9 76 2.5 SE 15 19 8 10 1017.8 1016.4 0.0
26/06:30am 18.9 18.4 15.0 78 2.3 SE 11 17 6 9 1017.7 1016.3 0.0
26/06:00am 18.1 17.1 14.6 80 2.0 ESE 13 19 7 10 1017.6 1016.2 0.0
26/05:30am 18.1 17.2 14.8 81 1.9 ESE 13 17 7 9 1017.6 1016.2 0.0
26/05:00am 18.0 17.1 14.9 82 1.8 ESE 13 20 7 11 1017.6 1016.2 0.0
26/04:30am 17.9 16.2 14.8 82 1.8 E 17 24 9 13 1017.2 1015.8 0.0
26/04:00am 18.0 16.4 14.9 82 1.8 E 17 30 9 16 1017.2 1015.8 0.0
26/03:30am 18.4 17.1 14.9 80 2.1 ESE 15 24 8 13 1017.2 1015.8 0.0
26/03:00am 18.2 16.6 14.9 81 1.9 ESE 17 24 9 13 1017.3 1015.9 0.0
26/02:30am 18.3 16.2 14.8 80 2.1 ESE 19 28 10 15 1017.4 1016.0 0.0
26/02:00am 18.6 16.6 14.9 79 2.2 SE 19 30 10 16 1017.3 1015.9 0.0
26/01:30am 18.6 16.6 14.9 79 2.2 ESE 19 30 10 16 1017.3 1015.9 0.0
26/01:00am 18.6 16.6 14.9 79 2.2 ESE 19 28 10 15 1017.3 1015.9 0.0
26/12:30am 18.5 16.4 14.8 79 2.2 SE 19 28 10 15 1017.3 1015.9 0.0
26/12:00am 18.5 16.3 14.8 79 2.2 SE 20 32 11 17 1017.4 1016.0 0.0
 
Date/Time
WST
Temp
°C
App
Temp
°C
Dew
Point
°C
Rel
Hum
%
Delta-T
°C
Wind Press
QNH
hPa
Press
MSL
hPa
Rain since
9am
mm
Dir  Spd
km/h
Gust
km/h
Spd
kts
Gust
kts
25/11:30pm 18.5 16.8 14.6 78 2.3 ESE 17 28 9 15 1017.4 1016.0 0.0
25/11:00pm 18.9 16.7 14.4 75 2.6 SE 19 28 10 15 1017.0 1015.6 0.0
25/10:30pm 19.7 17.3 14.3 71 3.2 SE 20 28 11 15 1016.6 1015.3 0.0
25/10:00pm 20.7 17.8 14.1 66 3.9 SE 22 35 12 19 1016.6 1015.3 0.0
25/09:30pm 21.9 19.3 13.8 60 4.8 SE 20 33 11 18 1016.5 1015.2 0.0
25/09:00pm 23.3 20.6 13.5 54 5.8 SE 20 32 11 17 1016.3 1015.0 0.0

Other formats

Comma delimited format used in spreadsheet applications
http://www.bom.gov.au/fwo/IDW60801/IDW60801.95637.axf

JavaScript Object Notation format (JSON) in row-major order
http://www.bom.gov.au/fwo/IDW60801/IDW60801.95637.json

Data quality

Most of these data are generated automatically and are frequently updated. Quality checks on data are not normally performed. It is possible for incorrect values to appear. Refer to information at About Latest Weather Observations and please check the disclaimer before using these data.